Time;durP1;ratioP1;P1;durP2;ratioP2;P2;SDS_P1;SDS_P2;PMS_P1;PMS_P2;Temp;Humidity;BMP_temperature;BMP_pressure;BME280_temperature;BME280_humidity;BME280_pressure;Samples;Min_cycle;Max_cycle;Signal;HPM_P1;HPM_P2
2022/08/27 00:00:45;;;;;;;8.13;4.93;;;25.00;99.90;;;;;;5081089;28;20447;-93
2022/08/27 00:03:11;;;;;;;6.80;4.50;;;24.90;99.90;;;;;;5098618;28;20905;-94
2022/08/27 00:05:37;;;;;;;8.13;4.90;;;24.90;99.90;;;;;;5080036;28;20444;-93
2022/08/27 00:08:04;;;;;;;11.17;5.07;;;24.90;99.90;;;;;;5098137;28;20816;-94
2022/08/27 00:10:31;;;;;;;5.93;4.80;;;24.90;99.90;;;;;;5080444;28;20444;-94
2022/08/27 00:12:56;;;;;;;7.20;5.07;;;24.80;99.90;;;;;;5080263;28;20496;-92
2022/08/27 00:15:23;;;;;;;5.47;4.47;;;24.80;99.90;;;;;;5080507;28;20512;-93
2022/08/27 00:17:48;;;;;;;5.73;4.27;;;24.70;99.90;;;;;;5099743;28;20651;-93
2022/08/27 00:20:18;;;;;;;6.63;4.63;;;24.70;99.90;;;;;;5081660;28;20538;-93
2022/08/27 00:22:43;;;;;;;8.50;4.43;;;24.70;99.90;;;;;;5082316;28;20543;-92
2022/08/27 00:25:11;;;;;;;7.73;4.77;;;24.70;99.90;;;;;;5082856;28;20512;-93
2022/08/27 00:27:37;;;;;;;6.20;3.90;;;24.70;99.90;;;;;;5102915;28;20171;-93
2022/08/27 00:30:06;;;;;;;6.90;5.77;;;24.70;99.90;;;;;;5079660;28;20454;-94
2022/08/27 00:32:31;;;;;;;8.73;5.13;;;24.70;99.90;;;;;;5079448;28;20440;-94
2022/08/27 00:34:57;;;;;;;6.90;6.20;;;24.60;99.90;;;;;;5079234;28;21059;-93
2022/08/27 00:37:23;;;;;;;11.60;5.27;;;24.60;99.90;;;;;;5083377;28;20179;-93
2022/08/27 00:39:48;;;;;;;11.40;4.73;;;24.60;99.90;;;;;;5086908;28;20664;-93
2022/08/27 00:42:14;;;;;;;7.40;4.70;;;24.60;99.90;;;;;;5081228;28;20175;-92
2022/08/27 00:44:40;;;;;;;5.83;4.90;;;24.60;99.90;;;;;;5080424;28;20207;-93
2022/08/27 00:47:12;;;;;;;9.13;5.60;;;24.50;99.90;;;;;;5080073;28;20225;-93
2022/08/27 00:50:01;;;;;;;8.47;4.87;;;24.50;99.90;;;;;;5078188;28;20243;-93
2022/08/27 00:52:44;;;;;;;6.70;4.73;;;24.50;99.90;;;;;;5077667;28;20823;-93
2022/08/27 00:55:16;;;;;;;9.13;4.63;;;24.40;99.90;;;;;;5077752;28;20488;-93
2022/08/27 00:57:43;;;;;;;6.00;4.53;;;24.40;99.90;;;;;;5083875;28;20397;-94
2022/08/27 01:00:13;;;;;;;9.97;4.77;;;24.40;99.90;;;;;;5078752;28;20472;-93
2022/08/27 01:02:40;;;;;;;6.13;4.30;;;24.40;99.90;;;;;;5075791;28;20810;-93
2022/08/27 01:05:14;;;;;;;9.70;5.03;;;24.40;99.90;;;;;;5074817;28;20541;-93
2022/08/27 01:07:45;;;;;;;9.70;4.57;;;24.30;99.90;;;;;;5077305;28;20403;-93
2022/08/27 01:10:14;;;;;;;5.73;4.87;;;24.30;99.90;;;;;;5076097;28;20502;-94
2022/08/27 01:12:41;;;;;;;5.20;3.80;;;24.30;99.90;;;;;;5075837;28;20408;-94
2022/08/27 01:15:10;;;;;;;4.50;4.10;;;24.30;99.90;;;;;;5075757;28;20491;-94
2022/08/27 01:17:41;;;;;;;11.50;4.90;;;24.30;99.90;;;;;;5076302;28;20409;-93
2022/08/27 01:20:20;;;;;;;7.10;4.27;;;24.20;99.90;;;;;;5078266;28;20456;-95
2022/08/27 01:23:22;;;;;;;8.37;4.40;;;24.20;99.90;;;;;;5082891;28;20499;-93
2022/08/27 01:25:48;;;;;;;9.33;5.00;;;24.20;99.90;;;;;;5080877;28;20470;-93
2022/08/27 01:28:15;;;;;;;6.73;5.23;;;24.10;99.90;;;;;;5082186;28;20419;-93
2022/08/27 01:30:42;;;;;;;7.30;4.63;;;24.10;99.90;;;;;;5078192;28;20453;-94
2022/08/27 01:33:14;;;;;;;6.20;4.63;;;24.10;99.90;;;;;;5076338;28;20476;-93
2022/08/27 01:35:45;;;;;;;7.10;5.50;;;24.10;99.90;;;;;;5075446;28;20488;-93
2022/08/27 01:38:11;;;;;;;6.57;4.43;;;24.00;99.90;;;;;;5075778;28;20415;-93
2022/08/27 01:40:37;;;;;;;5.20;4.70;;;24.00;99.90;;;;;;5075314;28;20444;-94
2022/08/27 01:43:04;;;;;;;8.07;5.50;;;24.00;99.90;;;;;;5075549;28;20435;-93
2022/08/27 01:45:33;;;;;;;7.50;5.23;;;23.90;99.90;;;;;;5075345;28;20211;-93
2022/08/27 01:48:00;;;;;;;13.37;5.10;;;23.80;99.90;;;;;;5075171;28;20420;-93
2022/08/27 01:50:33;;;;;;;14.00;5.60;;;23.80;99.90;;;;;;5075255;28;20479;-93
2022/08/27 01:53:06;;;;;;;8.60;5.33;;;23.80;99.90;;;;;;5076536;28;20413;-94
2022/08/27 01:55:33;;;;;;;11.37;5.57;;;23.70;99.90;;;;;;5093334;28;20463;-93
2022/08/27 01:57:58;;;;;;;12.00;5.17;;;23.70;99.90;;;;;;5077383;28;20461;-92
2022/08/27 02:00:30;;;;;;;10.10;5.57;;;23.70;99.90;;;;;;5075397;28;20460;-93
2022/08/27 02:02:57;;;;;;;10.73;6.17;;;23.60;99.90;;;;;;5076289;28;20246;-93
2022/08/27 02:05:23;;;;;;;7.77;5.87;;;23.60;99.90;;;;;;5074977;28;20854;-93
2022/08/27 02:07:49;;;;;;;8.53;5.70;;;23.60;99.90;;;;;;5074673;28;20431;-93
2022/08/27 02:10:19;;;;;;;8.27;5.00;;;23.60;99.90;;;;;;5074905;28;20452;-93
2022/08/27 02:12:45;;;;;;;7.03;5.13;;;23.60;99.90;;;;;;5074808;28;20811;-93
2022/08/27 02:15:12;;;;;;;7.43;4.07;;;23.60;99.90;;;;;;5074201;28;20863;-92
2022/08/27 02:17:37;;;;;;;9.37;5.23;;;23.60;99.90;;;;;;5074507;28;20455;-93
2022/08/27 02:20:08;;;;;;;10.53;5.07;;;23.50;99.90;;;;;;5074987;28;20463;-93
2022/08/27 02:22:34;;;;;;;12.70;5.53;;;23.50;99.90;;;;;;5074905;28;20174;-93
2022/08/27 02:25:01;;;;;;;6.83;5.20;;;23.50;99.90;;;;;;5074858;28;20439;-93
2022/08/27 02:27:26;;;;;;;6.50;5.30;;;23.40;99.90;;;;;;5074583;28;20407;-93
2022/08/27 02:29:54;;;;;;;8.13;5.00;;;23.40;99.90;;;;;;5076192;28;20515;-94
2022/08/27 02:32:21;;;;;;;10.60;5.63;;;23.30;99.90;;;;;;5075199;28;20240;-93
2022/08/27 02:34:47;;;;;;;7.83;5.17;;;23.30;99.90;;;;;;5075425;28;20510;-93
2022/08/27 02:37:13;;;;;;;8.60;5.43;;;23.30;99.90;;;;;;5084309;28;20946;-93
2022/08/27 02:39:39;;;;;;;8.30;4.50;;;23.20;99.90;;;;;;5087259;28;20451;-93
2022/08/27 02:42:05;;;;;;;10.80;5.43;;;23.20;99.90;;;;;;5073684;28;20414;-93
2022/08/27 02:44:30;;;;;;;10.03;5.70;;;23.20;99.90;;;;;;5074714;28;20247;-93
2022/08/27 02:46:57;;;;;;;6.10;5.60;;;23.20;99.90;;;;;;5073874;28;20242;-93
2022/08/27 02:49:23;;;;;;;8.17;5.40;;;23.10;99.90;;;;;;5074066;28;20725;-93
2022/08/27 02:51:55;;;;;;;6.70;5.57;;;23.10;99.90;;;;;;5074107;28;20399;-94
2022/08/27 02:54:22;;;;;;;10.40;5.30;;;23.10;99.90;;;;;;5074956;28;20221;-93
2022/08/27 02:56:49;;;;;;;14.13;5.20;;;23.10;99.90;;;;;;5075300;28;20911;-92
2022/08/27 02:59:15;;;;;;;7.20;5.00;;;23.10;99.90;;;;;;5074798;28;20438;-93
2022/08/27 03:01:41;;;;;;;6.03;4.40;;;23.00;99.90;;;;;;5074740;28;20416;-92
2022/08/27 03:04:07;;;;;;;6.80;4.60;;;23.00;99.90;;;;;;5076238;28;20439;-93
2022/08/27 03:06:32;;;;;;;5.63;5.13;;;23.00;99.90;;;;;;5074401;28;20190;-94
2022/08/27 03:08:58;;;;;;;7.20;4.63;;;23.00;99.90;;;;;;5075014;28;20185;-93
2022/08/27 03:11:24;;;;;;;8.70;4.50;;;23.00;99.90;;;;;;5075585;28;20638;-93
2022/08/27 03:13:51;;;;;;;6.20;4.23;;;23.00;99.90;;;;;;5074073;28;20416;-93
2022/08/27 03:16:16;;;;;;;7.47;4.33;;;23.00;99.90;;;;;;5075134;28;20264;-93
2022/08/27 03:18:42;;;;;;;7.70;4.97;;;22.90;99.90;;;;;;5075075;28;20464;-93
2022/08/27 03:21:08;;;;;;;5.13;4.63;;;22.90;99.90;;;;;;5075310;28;20235;-93
2022/08/27 03:23:34;;;;;;;6.83;4.90;;;22.90;99.90;;;;;;5076842;28;20320;-93
2022/08/27 03:26:03;;;;;;;6.70;4.50;;;22.90;99.90;;;;;;5086774;28;20208;-93
2022/08/27 03:28:34;;;;;;;9.10;4.67;;;22.80;99.90;;;;;;5077498;28;20406;-92
2022/08/27 03:31:03;;;;;;;8.17;4.70;;;22.80;99.90;;;;;;5078676;28;20452;-93
2022/08/27 03:33:36;;;;;;;10.10;4.93;;;22.80;99.90;;;;;;5078546;28;20934;-93
2022/08/27 03:36:03;;;;;;;5.70;4.33;;;22.80;99.90;;;;;;5078244;28;20578;-93
2022/08/27 03:38:28;;;;;;;6.67;4.77;;;22.70;99.90;;;;;;5087644;28;20431;-93
2022/08/27 03:40:55;;;;;;;7.33;4.70;;;22.70;99.90;;;;;;5077934;28;20875;-92
2022/08/27 03:43:21;;;;;;;6.60;4.80;;;22.70;99.90;;;;;;5088226;28;20537;-93
2022/08/27 03:45:48;;;;;;;10.63;5.30;;;22.70;99.90;;;;;;5082946;28;20450;-93
2022/08/27 03:48:14;;;;;;;7.07;4.87;;;22.70;99.90;;;;;;5083005;28;20497;-93
2022/08/27 03:50:43;;;;;;;15.10;4.73;;;22.60;99.90;;;;;;5076771;28;20517;-93
2022/08/27 03:53:10;;;;;;;6.03;4.80;;;22.60;99.90;;;;;;5081024;28;20914;-93
2022/08/27 03:55:36;;;;;;;10.10;4.70;;;22.60;99.90;;;;;;5077461;28;20522;-93
2022/08/27 03:58:02;;;;;;;9.43;5.07;;;22.60;99.90;;;;;;5077238;28;20413;-92
2022/08/27 04:00:28;;;;;;;5.33;4.43;;;22.60;99.90;;;;;;5078651;28;20801;-93
2022/08/27 04:02:54;;;;;;;5.80;4.80;;;22.60;99.90;;;;;;5077378;28;20414;-93
2022/08/27 04:05:21;;;;;;;7.53;5.10;;;22.50;99.90;;;;;;5078801;28;20459;-93
2022/08/27 04:07:48;;;;;;;7.10;5.37;;;22.50;99.90;;;;;;5078670;28;20405;-93
2022/08/27 04:10:15;;;;;;;7.50;4.53;;;22.50;99.90;;;;;;5077770;28;20446;-93
2022/08/27 04:12:41;;;;;;;16.03;14.43;;;22.50;99.90;;;;;;5078579;28;20930;-93
2022/08/27 04:15:09;;;;;;;10.47;9.47;;;22.50;99.90;;;;;;5078070;28;20496;-93
2022/08/27 04:17:35;;;;;;;11.40;10.20;;;22.40;99.90;;;;;;5086153;28;20407;-92
2022/08/27 04:20:01;;;;;;;11.43;6.43;;;22.40;99.90;;;;;;5090286;28;20480;-94
2022/08/27 04:22:27;;;;;;;11.40;5.50;;;22.40;99.90;;;;;;5076384;28;20432;-93
2022/08/27 04:24:54;;;;;;;7.00;4.50;;;22.40;99.90;;;;;;5076534;28;20529;-93
2022/08/27 04:27:20;;;;;;;9.80;5.00;;;22.40;99.90;;;;;;5078242;28;20465;-93
2022/08/27 04:29:46;;;;;;;10.93;5.00;;;22.40;99.90;;;;;;5076503;28;20470;-93
2022/08/27 04:32:12;;;;;;;11.00;5.50;;;22.40;99.90;;;;;;5078450;28;20481;-92
2022/08/27 04:34:38;;;;;;;6.20;4.70;;;22.40;99.90;;;;;;5076882;28;20584;-94
2022/08/27 04:37:04;;;;;;;5.87;4.30;;;22.40;99.90;;;;;;5077004;28;20424;-93
2022/08/27 04:39:30;;;;;;;10.30;5.03;;;22.40;99.90;;;;;;5076926;28;20442;-93
2022/08/27 04:41:58;;;;;;;8.20;5.40;;;22.40;99.90;;;;;;5082275;28;20166;-93
2022/08/27 04:44:30;;;;;;;10.33;5.23;;;22.40;99.90;;;;;;5078482;28;20544;-93
2022/08/27 04:46:58;;;;;;;10.60;5.00;;;22.40;99.90;;;;;;5077425;28;20402;-94
2022/08/27 04:49:24;;;;;;;11.03;5.20;;;22.40;99.90;;;;;;5076386;28;20508;-92
2022/08/27 04:51:49;;;;;;;6.77;5.07;;;22.40;99.90;;;;;;5076360;28;20426;-94
2022/08/27 04:54:15;;;;;;;5.93;5.03;;;22.40;99.90;;;;;;5077805;28;20494;-93
2022/08/27 04:56:41;;;;;;;6.80;4.87;;;22.40;99.90;;;;;;5076290;28;20173;-93
2022/08/27 04:59:08;;;;;;;7.00;4.93;;;22.40;99.90;;;;;;5076667;28;20185;-93
2022/08/27 05:01:35;;;;;;;5.70;4.73;;;22.50;99.90;;;;;;5075996;28;20173;-93
2022/08/27 05:04:01;;;;;;;5.17;4.70;;;22.50;99.90;;;;;;5076466;28;20472;-93
2022/08/27 05:06:27;;;;;;;9.03;5.60;;;22.50;99.90;;;;;;5077284;28;20406;-92
2022/08/27 05:08:53;;;;;;;10.73;4.20;;;22.60;99.90;;;;;;5087111;28;20398;-93
2022/08/27 05:11:20;;;;;;;10.33;4.90;;;22.60;99.90;;;;;;5085301;28;20173;-93
2022/08/27 05:13:47;;;;;;;7.47;5.57;;;22.60;99.90;;;;;;5092695;28;20410;-93
2022/08/27 05:16:17;;;;;;;6.60;4.40;;;22.70;99.90;;;;;;5085683;28;20477;-93
2022/08/27 05:18:44;;;;;;;6.37;4.37;;;22.70;99.90;;;;;;5080499;28;20450;-94
2022/08/27 05:21:22;;;;;;;5.73;4.63;;;22.70;99.90;;;;;;5080243;28;20480;-93
2022/08/27 05:23:49;;;;;;;8.20;4.70;;;22.80;99.90;;;;;;5076161;28;20418;-93
2022/08/27 05:26:14;;;;;;;5.20;4.40;;;22.80;99.90;;;;;;5075109;28;20988;-94
2022/08/27 05:28:40;;;;;;;5.40;4.73;;;22.90;99.90;;;;;;5075854;28;20406;-93
2022/08/27 05:31:10;;;;;;;7.70;4.80;;;22.90;99.90;;;;;;5074995;28;20194;-93
2022/08/27 05:33:39;;;;;;;6.17;4.57;;;23.00;99.90;;;;;;5075473;28;20170;-93
2022/08/27 05:36:07;;;;;;;5.50;5.00;;;23.00;99.90;;;;;;5075301;28;21018;-94
2022/08/27 05:38:33;;;;;;;7.00;4.60;;;23.10;99.90;;;;;;5075565;28;20414;-93
2022/08/27 05:41:08;;;;;;;12.30;5.10;;;23.10;99.90;;;;;;5083558;28;20481;-94
2022/08/27 05:43:34;;;;;;;6.43;4.60;;;23.20;99.90;;;;;;5084229;28;20440;-93
2022/08/27 05:46:05;;;;;;;13.63;5.40;;;23.20;99.90;;;;;;5080934;28;20447;-93
2022/08/27 05:48:31;;;;;;;7.53;5.00;;;23.30;99.90;;;;;;5076678;28;20440;-93
2022/08/27 05:50:57;;;;;;;12.60;5.80;;;23.30;99.90;;;;;;5074285;28;20478;-93
2022/08/27 05:53:23;;;;;;;7.00;4.97;;;23.30;99.90;;;;;;5075308;28;20438;-94
2022/08/27 05:55:48;;;;;;;8.37;5.60;;;23.40;99.90;;;;;;5075462;28;20577;-92
2022/08/27 06:01:05;;;;;;;9.47;5.23;;;23.50;99.90;;;;;;5074882;28;20769;-94
2022/08/27 06:03:32;;;;;;;7.17;5.37;;;23.50;99.90;;;;;;5075673;28;20413;-93
2022/08/27 06:06:03;;;;;;;6.47;5.47;;;23.60;99.90;;;;;;5076357;28;20495;-93
2022/08/27 06:08:29;;;;;;;8.90;5.97;;;23.70;99.90;;;;;;5077253;28;20789;-93
2022/08/27 06:10:55;;;;;;;11.13;5.93;;;23.70;99.90;;;;;;5080276;28;20482;-93
2022/08/27 06:13:22;;;;;;;8.67;5.57;;;23.80;99.90;;;;;;5081518;28;20170;-93
2022/08/27 06:15:48;;;;;;;7.93;5.53;;;23.80;99.90;;;;;;5074370;28;20489;-93
2022/08/27 06:18:14;;;;;;;6.17;5.30;;;23.90;99.90;;;;;;5073259;28;20401;-92
2022/08/27 06:20:39;;;;;;;7.30;5.10;;;24.00;99.90;;;;;;5073569;28;20444;-92
2022/08/27 06:23:05;;;;;;;7.77;5.67;;;24.10;99.90;;;;;;5072009;28;20189;-93
2022/08/27 06:25:31;;;;;;;10.60;6.00;;;24.20;99.90;;;;;;5072105;28;20249;-93
2022/08/27 06:27:57;;;;;;;14.40;6.37;;;24.30;99.90;;;;;;5072013;28;20180;-93
2022/08/27 06:30:24;;;;;;;7.83;5.70;;;24.40;99.90;;;;;;5075714;28;21008;-94
2022/08/27 06:32:50;;;;;;;13.00;6.27;;;24.40;99.90;;;;;;5074605;28;20435;-94
2022/08/27 06:35:17;;;;;;;9.27;5.13;;;24.50;99.90;;;;;;5077275;28;20476;-94
2022/08/27 06:37:43;;;;;;;8.50;5.87;;;24.60;99.90;;;;;;5075908;28;20508;-93
2022/08/27 06:40:09;;;;;;;8.23;5.73;;;24.70;99.90;;;;;;5076367;28;20476;-94
2022/08/27 06:42:36;;;;;;;9.30;5.90;;;24.80;99.90;;;;;;5074869;28;20418;-93
2022/08/27 06:45:03;;;;;;;6.93;5.40;;;24.90;99.90;;;;;;5075708;28;20528;-93
2022/08/27 06:47:31;;;;;;;10.97;5.57;;;24.90;99.90;;;;;;5075080;28;20422;-94
2022/08/27 06:49:57;;;;;;;6.67;5.97;;;25.00;99.90;;;;;;5075163;28;20470;-94
2022/08/27 06:52:23;;;;;;;14.50;6.67;;;25.10;99.90;;;;;;5075273;28;20797;-93
2022/08/27 06:54:49;;;;;;;7.17;6.10;;;25.20;99.90;;;;;;5077438;28;20481;-93
2022/08/27 06:57:15;;;;;;;7.00;5.30;;;25.20;99.90;;;;;;5079421;28;20405;-94
2022/08/27 06:59:42;;;;;;;12.37;5.97;;;25.30;99.90;;;;;;5092774;28;20514;-93
2022/08/27 07:02:07;;;;;;;12.03;5.23;;;25.40;99.90;;;;;;5075066;28;20468;-92
2022/08/27 07:04:33;;;;;;;12.50;5.97;;;25.50;99.90;;;;;;5078562;28;20444;-93
2022/08/27 07:07:02;;;;;;;11.43;6.10;;;25.60;99.90;;;;;;5077680;28;20189;-93
2022/08/27 07:09:31;;;;;;;11.40;6.33;;;25.60;99.90;;;;;;5077302;28;20584;-93
2022/08/27 07:11:57;;;;;;;6.90;4.63;;;25.80;99.90;;;;;;5078513;28;20422;-94
2022/08/27 07:14:23;;;;;;;10.30;6.13;;;25.80;99.90;;;;;;5077435;28;20469;-93
2022/08/27 07:16:50;;;;;;;9.80;6.43;;;25.90;99.90;;;;;;5077402;28;20516;-93
2022/08/27 07:19:16;;;;;;;12.93;6.97;;;26.00;99.90;;;;;;5081731;28;20437;-94
2022/08/27 07:21:42;;;;;;;16.17;5.87;;;26.10;99.90;;;;;;5085124;28;20790;-93
2022/08/27 07:24:08;;;;;;;9.53;5.47;;;26.20;99.90;;;;;;5078165;28;20414;-94
2022/08/27 07:26:37;;;;;;;6.63;5.30;;;26.30;99.90;;;;;;5079075;28;20911;-93
2022/08/27 07:29:05;;;;;;;8.27;5.00;;;26.40;99.90;;;;;;5079554;28;20512;-93
2022/08/27 07:31:34;;;;;;;8.80;5.43;;;26.40;99.90;;;;;;5079978;28;20475;-93
2022/08/27 07:34:00;;;;;;;9.50;5.90;;;26.50;99.90;;;;;;5078522;28;20437;-94
2022/08/27 07:36:27;;;;;;;10.43;6.20;;;26.60;99.90;;;;;;5078516;28;20414;-93
2022/08/27 07:38:52;;;;;;;6.10;5.20;;;26.70;99.90;;;;;;5080271;28;20808;-94
2022/08/27 07:41:19;;;;;;;10.30;5.80;;;26.80;99.90;;;;;;5079061;28;20409;-93
2022/08/27 07:46:28;;;;;;;10.90;6.00;;;27.00;99.90;;;;;;5079742;28;20401;-94
2022/08/27 07:48:55;;;;;;;7.13;4.90;;;27.10;99.90;;;;;;5079883;28;20401;-93
2022/08/27 07:51:22;;;;;;;10.70;5.10;;;27.20;99.90;;;;;;5093144;28;20192;-94
2022/08/27 07:53:48;;;;;;;5.73;5.03;;;27.20;99.90;;;;;;5098304;28;20409;-94
2022/08/27 07:56:14;;;;;;;12.63;5.07;;;27.30;99.90;;;;;;5080333;28;20552;-94
2022/08/27 07:58:41;;;;;;;6.10;5.20;;;27.40;99.90;;;;;;5098201;28;20171;-93
2022/08/27 08:01:08;;;;;;;12.70;4.40;;;27.50;99.90;;;;;;5080118;28;20432;-94
2022/08/27 08:03:34;;;;;;;7.93;4.90;;;27.60;99.90;;;;;;5079996;28;20421;-95
2022/08/27 08:06:05;;;;;;;7.47;5.00;;;27.70;99.90;;;;;;5080331;28;20444;-93
2022/08/27 08:08:33;;;;;;;6.60;4.57;;;27.80;99.90;;;;;;5083796;28;20421;-94
2022/08/27 08:10:58;;;;;;;8.90;4.90;;;27.90;99.90;;;;;;5098995;28;20865;-93
2022/08/27 08:13:25;;;;;;;9.20;4.50;;;27.90;99.90;;;;;;5080081;28;20409;-94
2022/08/27 08:15:51;;;;;;;6.43;4.10;;;28.00;99.90;;;;;;5080833;28;20696;-93
2022/08/27 08:18:17;;;;;;;10.00;4.00;;;28.20;99.90;;;;;;5080405;28;20951;-94
2022/08/27 08:20:42;;;;;;;6.33;4.23;;;28.30;99.90;;;;;;5098933;28;20498;-93
2022/08/27 08:23:08;;;;;;;7.10;4.57;;;28.40;99.90;;;;;;5098296;28;20189;-94
2022/08/27 08:25:34;;;;;;;5.80;4.17;;;28.50;99.90;;;;;;5080492;28;20211;-93
2022/08/27 08:27:59;;;;;;;5.67;5.00;;;28.60;99.90;;;;;;5081246;28;20186;-94
2022/08/27 08:30:25;;;;;;;8.20;4.00;;;28.70;99.90;;;;;;5089198;28;20206;-93
2022/08/27 08:32:51;;;;;;;7.30;4.30;;;28.80;99.90;;;;;;5097846;28;20174;-93
2022/08/27 08:35:17;;;;;;;5.67;3.90;;;28.90;99.90;;;;;;5080951;28;21026;-93
2022/08/27 08:37:43;;;;;;;7.37;4.00;;;29.00;99.90;;;;;;5079914;28;20687;-94
2022/08/27 08:40:20;;;;;;;10.47;5.03;;;29.10;99.90;;;;;;5080151;28;20194;-93
2022/08/27 08:42:51;;;;;;;4.90;4.40;;;29.20;99.90;;;;;;5098238;28;20393;-93
2022/08/27 08:45:23;;;;;;;7.53;4.23;;;29.30;99.90;;;;;;5098432;28;20441;-93
2022/08/27 08:47:58;;;;;;;4.07;3.57;;;29.40;99.90;;;;;;5097759;28;20831;-94
2022/08/27 08:50:52;;;;;;;6.93;3.50;;;29.60;99.90;;;;;;5084067;28;20566;-93
2022/08/27 08:53:36;;;;;;;5.10;4.13;;;29.80;99.90;;;;;;5081322;28;20411;-93
2022/08/27 08:56:07;;;;;;;9.00;3.73;;;30.50;99.90;;;;;;5080151;28;20544;-93
2022/08/27 08:59:00;;;;;;;6.03;4.13;;;31.20;98.70;;;;;;5098274;28;20397;-93
2022/08/27 09:01:26;;;;;;;4.50;3.73;;;31.80;97.70;;;;;;5080297;28;20428;-94
2022/08/27 09:03:56;;;;;;;6.50;4.50;;;32.00;97.80;;;;;;5097689;28;20763;-93
2022/08/27 09:06:37;;;;;;;7.27;4.07;;;32.00;95.80;;;;;;5080047;28;20462;-93
2022/08/27 09:09:24;;;;;;;8.77;4.00;;;32.00;96.30;;;;;;5080145;28;20424;-93
2022/08/27 09:11:59;;;;;;;12.27;5.10;;;31.90;95.90;;;;;;5082908;28;20413;-95
2022/08/27 09:14:44;;;;;;;7.83;3.70;;;31.70;96.80;;;;;;5080178;28;20463;-95
2022/08/27 09:17:10;;;;;;;10.03;4.00;;;31.70;96.90;;;;;;5088893;28;20416;-94
2022/08/27 09:19:36;;;;;;;4.10;3.57;;;31.60;95.10;;;;;;5093259;28;20456;-94
2022/08/27 09:22:17;;;;;;;6.40;4.20;;;31.60;95.20;;;;;;5081387;28;20175;-94
2022/08/27 09:25:04;;;;;;;9.87;3.20;;;31.50;95.40;;;;;;5095451;28;20200;-94
2022/08/27 09:27:32;;;;;;;7.10;4.17;;;31.50;96.10;;;;;;5055896;28;20417;-94
2022/08/27 09:30:03;;;;;;;6.20;4.30;;;31.40;94.60;;;;;;5078569;28;20499;-94
2022/08/27 09:32:33;;;;;;;6.33;4.07;;;31.40;95.20;;;;;;5083347;28;20405;-94
2022/08/27 09:35:02;;;;;;;4.30;3.47;;;31.40;94.80;;;;;;5079770;28;20480;-95
2022/08/27 09:37:38;;;;;;;8.77;3.60;;;31.40;93.20;;;;;;5079754;28;20498;-94
2022/08/27 09:40:13;;;;;;;5.53;3.60;;;31.40;93.40;;;;;;5080065;28;20525;-95
2022/08/27 09:42:52;;;;;;;4.60;4.20;;;31.40;93.50;;;;;;5079597;28;20425;-94
2022/08/27 09:45:23;;;;;;;7.73;3.50;;;31.50;93.90;;;;;;5080141;28;20460;-94
2022/08/27 09:48:06;;;;;;;5.67;4.13;;;31.40;94.00;;;;;;5079772;28;20436;-95
2022/08/27 09:50:51;;;;;;;3.97;3.43;;;31.40;94.90;;;;;;5079520;28;20522;-94
2022/08/27 09:53:51;;;;;;;4.37;3.27;;;31.40;95.10;;;;;;5079915;28;20424;-94
2022/08/27 09:56:27;;;;;;;6.03;3.27;;;31.40;95.30;;;;;;5079280;28;20481;-94
2022/08/27 09:59:11;;;;;;;6.13;2.90;;;31.30;95.40;;;;;;5080840;28;20485;-94
2022/08/27 10:01:51;;;;;;;6.70;4.07;;;31.30;94.90;;;;;;5090603;28;20388;-94
2022/08/27 10:04:25;;;;;;;6.73;3.80;;;31.30;94.70;;;;;;5089850;28;20448;-94
2022/08/27 10:06:52;;;;;;;8.57;3.27;;;31.30;94.40;;;;;;5080160;28;20405;-95
2022/08/27 10:09:40;;;;;;;5.07;3.50;;;31.30;94.50;;;;;;5078117;28;20461;-94
2022/08/27 10:12:19;;;;;;;8.63;3.10;;;31.30;94.90;;;;;;5078265;28;20451;-94
2022/08/27 10:14:51;;;;;;;6.73;3.50;;;31.40;92.50;;;;;;5077487;28;20502;-94
2022/08/27 10:17:29;;;;;;;4.10;2.90;;;31.40;91.60;;;;;;5095524;28;20480;-95
2022/08/27 10:20:01;;;;;;;4.37;3.97;;;31.50;91.50;;;;;;5077551;28;20452;-94
2022/08/27 10:23:11;;;;;;;9.57;2.97;;;31.50;93.10;;;;;;5095610;28;20795;-94
2022/08/27 10:26:27;;;;;;;4.63;3.50;;;31.50;93.90;;;;;;5058043;28;20452;-95
2022/08/27 10:29:28;;;;;;;4.47;3.53;;;31.50;93.60;;;;;;5001340;28;20423;-94
2022/08/27 10:32:17;;;;;;;7.10;3.80;;;31.50;90.70;;;;;;5083637;28;20485;-93
2022/08/27 10:35:34;;;;;;;5.90;3.87;;;31.50;90.20;;;;;;5087878;28;20491;-94
2022/08/27 10:38:30;;;;;;;7.37;3.70;;;31.60;91.40;;;;;;5006795;28;20428;-94
2022/08/27 10:41:21;;;;;;;4.77;3.23;;;31.60;91.80;;;;;;5079035;28;20444;-95
2022/08/27 10:44:19;;;;;;;4.13;2.90;;;31.70;89.80;;;;;;5095707;28;20450;-94
2022/08/27 10:47:24;;;;;;;8.73;3.37;;;31.70;89.80;;;;;;5077108;28;20460;-94
2022/08/27 10:50:07;;;;;;;4.03;2.83;;;31.70;92.40;;;;;;5072964;28;20499;-95
2022/08/27 10:52:54;;;;;;;4.07;2.50;;;31.60;92.40;;;;;;5074635;28;20421;-94
2022/08/27 10:55:40;;;;;;;4.80;3.40;;;31.60;92.60;;;;;;5074329;28;20481;-93
2022/08/27 10:58:16;;;;;;;3.27;3.00;;;31.60;92.80;;;;;;5074583;28;20449;-94
2022/08/27 11:01:20;;;;;;;6.53;3.20;;;31.60;93.20;;;;;;5076047;28;20478;-94
2022/08/27 11:04:02;;;;;;;5.13;3.00;;;31.60;93.40;;;;;;5074516;28;20446;-94
2022/08/27 11:06:31;;;;;;;4.80;3.20;;;31.60;86.80;;;;;;5074272;28;20421;-93
2022/08/27 11:09:13;;;;;;;3.10;2.57;;;31.60;91.70;;;;;;5073955;28;20793;-93
2022/08/27 11:11:44;;;;;;;3.63;3.03;;;31.60;92.00;;;;;;5075781;28;20416;-94
2022/08/27 11:14:33;;;;;;;7.63;3.40;;;31.60;92.30;;;;;;5075743;28;20979;-94
2022/08/27 11:17:10;;;;;;;6.10;3.07;;;31.70;83.10;;;;;;5079903;28;20410;-93
2022/08/27 11:19:58;;;;;;;7.40;3.37;;;31.70;83.50;;;;;;5080443;28;20458;-94
2022/08/27 11:22:33;;;;;;;4.43;3.57;;;31.80;83.00;;;;;;5074053;28;20922;-94
2022/08/27 11:25:11;;;;;;;8.23;3.40;;;31.90;88.50;;;;;;5076098;28;20437;-95
2022/08/27 11:27:39;;;;;;;8.70;3.10;;;31.90;88.50;;;;;;5074570;28;20495;-93
2022/08/27 11:30:31;;;;;;;3.90;3.20;;;31.90;89.60;;;;;;5075956;28;20539;-94
2022/08/27 11:33:03;;;;;;;5.43;3.37;;;31.90;87.60;;;;;;5073936;28;20426;-94
2022/08/27 11:35:41;;;;;;;4.80;3.30;;;31.90;90.50;;;;;;5074376;28;20484;-95
2022/08/27 11:38:28;;;;;;;6.83;3.70;;;31.90;91.30;;;;;;5073590;28;20418;-94
2022/08/27 11:41:26;;;;;;;5.87;3.50;;;31.90;91.50;;;;;;5074486;28;20442;-94
2022/08/27 11:43:53;;;;;;;8.43;3.47;;;31.90;91.00;;;;;;5073469;28;20445;-94
2022/08/27 11:46:26;;;;;;;4.83;3.33;;;31.90;87.40;;;;;;5074599;28;20508;-94
2022/08/27 11:49:01;;;;;;;5.53;3.37;;;31.90;83.80;;;;;;5077218;28;20406;-94
2022/08/27 11:51:39;;;;;;;3.57;3.27;;;32.00;86.30;;;;;;5081717;28;20433;-93
2022/08/27 11:54:08;;;;;;;5.80;3.43;;;32.00;89.40;;;;;;5081847;28;20803;-94
2022/08/27 11:56:41;;;;;;;5.00;3.00;;;32.00;89.90;;;;;;5100308;28;20425;-94
2022/08/27 11:59:21;;;;;;;3.63;3.27;;;32.00;90.50;;;;;;5099622;28;20417;-94
2022/08/27 12:01:48;;;;;;;5.60;2.73;;;32.10;90.30;;;;;;5085445;28;20392;-94
2022/08/27 12:04:35;;;;;;;5.50;3.90;;;32.10;90.40;;;;;;5088905;28;20459;-94
2022/08/27 12:07:13;;;;;;;4.53;3.43;;;32.10;90.50;;;;;;5082622;28;20779;-95
2022/08/27 12:09:54;;;;;;;3.90;3.33;;;32.10;91.30;;;;;;5081178;28;20836;-94
2022/08/27 12:12:23;;;;;;;5.03;3.17;;;32.00;91.40;;;;;;5081237;28;20416;-94
2022/08/27 12:15:21;;;;;;;6.70;3.90;;;32.00;91.50;;;;;;5082171;28;20519;-94
2022/08/27 12:18:10;;;;;;;5.47;3.67;;;32.00;91.60;;;;;;5098987;28;20771;-93
2022/08/27 12:20:54;;;;;;;5.33;3.20;;;32.00;91.00;;;;;;5080253;28;20445;-94
2022/08/27 12:23:38;;;;;;;3.37;3.10;;;32.00;90.10;;;;;;5099125;28;20750;-94
2022/08/27 12:26:30;;;;;;;4.47;4.07;;;32.00;90.20;;;;;;5081584;28;20449;-94
2022/08/27 12:29:33;;;;;;;5.77;3.80;;;32.00;90.80;;;;;;5080087;28;20424;-94
2022/08/27 12:32:23;;;;;;;5.23;3.77;;;32.00;87.90;;;;;;5097737;28;20480;-94
2022/08/27 12:35:17;;;;;;;4.73;3.13;;;32.00;82.60;;;;;;5079980;28;20477;-94
2022/08/27 12:38:01;;;;;;;4.20;3.30;;;32.00;89.00;;;;;;5079618;28;20459;-94
2022/08/27 12:40:36;;;;;;;3.70;3.40;;;32.00;90.90;;;;;;5079971;28;20456;-94
2022/08/27 12:43:17;;;;;;;3.67;3.30;;;32.00;86.00;;;;;;5079677;28;20458;-94
2022/08/27 12:46:02;;;;;;;4.43;3.40;;;32.00;87.20;;;;;;5079858;28;20445;-94
2022/08/27 12:48:38;;;;;;;6.33;4.30;;;32.00;88.80;;;;;;5083529;28;20436;-93
2022/08/27 12:51:30;;;;;;;4.80;3.30;;;32.10;88.30;;;;;;5060344;28;20520;-94
2022/08/27 12:54:10;;;;;;;4.73;3.57;;;32.10;90.20;;;;;;5048603;28;20414;-95
2022/08/27 12:57:27;;;;;;;4.50;3.77;;;32.10;90.60;;;;;;5057033;28;21009;-94
2022/08/27 13:00:12;;;;;;;3.40;3.00;;;32.10;90.10;;;;;;5025221;28;20469;-94
2022/08/27 13:02:56;;;;;;;3.37;3.07;;;32.10;90.00;;;;;;5056802;28;20414;-93
2022/08/27 13:05:24;;;;;;;4.50;2.90;;;32.10;90.60;;;;;;5056581;28;20888;-94
2022/08/27 13:07:51;;;;;;;4.20;3.80;;;32.10;89.70;;;;;;5058199;28;20422;-95
2022/08/27 13:10:31;;;;;;;6.70;3.50;;;32.10;90.30;;;;;;5053708;28;21019;-95
2022/08/27 13:13:07;;;;;;;3.70;2.90;;;32.10;90.30;;;;;;5054594;28;20809;-95
2022/08/27 13:15:34;;;;;;;4.90;3.60;;;32.20;80.90;;;;;;5053122;28;20477;-96